Time;durP1;ratioP1;P1;durP2;ratioP2;P2;SDS_P1;SDS_P2;PMS_P1;PMS_P2;Temp;Humidity;BMP_temperature;BMP_pressure;BME280_temperature;BME280_humidity;BME280_pressure;Samples;Min_cycle;Max_cycle;Signal;HPM_P1;HPM_P2
2022/03/20 00:00:53;;;;;;;;;;;;;;;;;;2124145;28;19923;-49
2022/03/20 00:01:54;;;;;;;;;;;;;;;;;;2116237;28;19924;-50
2022/03/20 00:02:56;;;;;;;;;;;;;;;;;;2115426;28;20500;-49
2022/03/20 00:03:58;;;;;;;;;;;;;;;;;;2115681;28;19925;-48
2022/03/20 00:05:00;;;;;;;;;;;;;;;;;;2115768;28;19924;-51
2022/03/20 00:06:03;;;;;;;;;;;;;;;;;;2107144;28;19987;-49
2022/03/20 00:07:06;;;;;;;;;;;;;;;;;;2109749;28;20370;-49
2022/03/20 00:08:09;;;;;;;;;;;;;;;;;;2118402;28;19923;-48
2022/03/20 00:09:10;;;;;;;;;;;;;;;;;;2119203;28;20510;-48
2022/03/20 00:10:11;;;;;;;;;;;;;;;;;;2118632;28;20014;-49
2022/03/20 00:11:13;;;;;;;;;;;;;;;;;;2118702;28;20016;-52
2022/03/20 00:12:14;;;;;;;;;;;;;;;;;;2118483;28;19923;-49
2022/03/20 00:13:16;;;;;;;;;;;;;;;;;;2119321;28;19924;-48
2022/03/20 00:14:17;;;;;;;;;;;;;;;;;;2118025;28;20054;-44
2022/03/20 00:15:18;;;;;;;;;;;;;;;;;;2118285;28;20464;-45
2022/03/20 00:16:19;;;;;;;;;;;;;;;;;;2118387;28;20025;-45
2022/03/20 00:17:21;;;;;;;;;;;;;;;;;;2119139;28;19927;-45
2022/03/20 00:18:24;;;;;;;;;;;;;;;;;;2118665;28;20384;-44
2022/03/20 00:19:27;;;;;;;;;;;;;;;;;;2116973;28;19923;-44
2022/03/20 00:20:28;;;;;;;;;;;;;;;;;;2118082;28;19938;-50
2022/03/20 00:21:30;;;;;;;;;;;;;;;;;;2118355;28;19932;-48
2022/03/20 00:22:31;;;;;;;;;;;;;;;;;;2118650;28;20055;-48
2022/03/20 00:23:34;;;;;;;;;;;;;;;;;;2117605;28;19927;-48
2022/03/20 00:24:34;;;;;;;;;;;;;;;;;;2117244;28;20013;-48
2022/03/20 00:25:37;;;;;;;;;;;;;;;;;;2118178;28;20436;-51
2022/03/20 00:26:39;;;;;;;;;;;;;;;;;;2119368;28;20146;-44
2022/03/20 00:27:40;;;;;;;;;;;;;;;;;;2118249;28;20022;-44
2022/03/20 00:28:45;;;;;;;;;;;;;;;;;;2119228;28;20006;-48
2022/03/20 00:29:47;;;;;;;;;;;;;;;;;;2119890;28;19974;-44
2022/03/20 00:30:48;;;;;;;;;;;;;;;;;;2119787;28;19924;-48
2022/03/20 00:31:49;;;;;;;;;;;;;;;;;;2118114;28;20011;-49
2022/03/20 00:32:51;;;;;;;;;;;;;;;;;;2116822;28;19924;-50
2022/03/20 00:33:52;;;;;;;;;;;;;;;;;;2118573;28;19935;-44
2022/03/20 00:34:57;;;;;;;;;;;;;;;;;;2117949;28;20034;-44
2022/03/20 00:35:58;;;;;;;;;;;;;;;;;;2118553;28;19936;-44
2022/03/20 00:36:59;;;;;;;;;;;;;;;;;;2117392;28;19931;-44
2022/03/20 00:38:01;;;;;;;;;;;;;;;;;;2117850;28;19942;-44
2022/03/20 00:39:02;;;;;;;;;;;;;;;;;;2116369;28;19923;-44
2022/03/20 00:40:03;;;;;;;;;;;;;;;;;;2117825;28;20019;-44
2022/03/20 00:41:04;;;;;;;;;;;;;;;;;;2117796;28;20006;-44
2022/03/20 00:42:05;;;;;;;;;;;;;;;;;;2118202;28;19966;-44
2022/03/20 00:43:06;;;;;;;;;;;;;;;;;;2118277;28;19963;-44
2022/03/20 00:44:07;;;;;;;;;;;;;;;;;;2117954;28;20007;-45
2022/03/20 00:45:09;;;;;;;;;;;;;;;;;;2116676;28;19924;-44
2022/03/20 00:46:10;;;;;;;;;;;;;;;;;;2118786;28;19923;-45
2022/03/20 00:47:13;;;;;;;;;;;;;;;;;;2117566;28;20031;-44
2022/03/20 00:48:14;;;;;;;;;;;;;;;;;;2118006;28;20357;-44
2022/03/20 00:49:15;;;;;;;;;;;;;;;;;;2117399;28;19923;-45
2022/03/20 00:50:16;;;;;;;;;;;;;;;;;;2119114;28;20309;-49
2022/03/20 00:51:17;;;;;;;;;;;;;;;;;;2117952;28;20307;-47
2022/03/20 00:52:19;;;;;;;;;;;;;;;;;;2117826;28;19932;-47
2022/03/20 00:53:20;;;;;;;;;;;;;;;;;;2117985;28;20139;-49
2022/03/20 00:54:22;;;;;;;;;;;;;;;;;;2115236;28;19928;-51
2022/03/20 00:55:25;;;;;;;;;;;;;;;;;;2117462;28;19935;-48
2022/03/20 00:56:26;;;;;;;;;;;;;;;;;;2117097;28;20002;-49
2022/03/20 00:57:27;;;;;;;;;;;;;;;;;;2120550;28;20321;-45
2022/03/20 00:58:28;;;;;;;;;;;;;;;;;;2115974;28;20076;-45
2022/03/20 00:59:29;;;;;;;;;;;;;;;;;;2116393;28;19928;-44
2022/03/20 01:00:32;;;;;;;;;;;;;;;;;;2116451;28;20393;-45
2022/03/20 01:01:34;;;;;;;;;;;;;;;;;;2117190;28;20645;-44
2022/03/20 01:02:36;;;;;;;;;;;;;;;;;;2117525;28;19927;-49
2022/03/20 01:03:38;;;;;;;;;;;;;;;;;;2116870;28;19931;-49
2022/03/20 01:04:39;;;;;;;;;;;;;;;;;;2116244;28;19968;-49
2022/03/20 01:05:41;;;;;;;;;;;;;;;;;;2116718;28;19937;-48
2022/03/20 01:06:42;;;;;;;;;;;;;;;;;;2117031;28;20041;-49
2022/03/20 01:07:43;;;;;;;;;;;;;;;;;;2116201;28;19934;-48
2022/03/20 01:08:44;;;;;;;;;;;;;;;;;;2118019;28;19947;-50
2022/03/20 01:09:45;;;;;;;;;;;;;;;;;;2116655;28;19923;-49
2022/03/20 01:10:47;;;;;;;;;;;;;;;;;;2117386;28;20355;-48
2022/03/20 01:11:47;;;;;;;;;;;;;;;;;;2117487;28;19935;-48
2022/03/20 01:12:49;;;;;;;;;;;;;;;;;;2117116;28;20065;-51
2022/03/20 01:13:50;;;;;;;;;;;;;;;;;;2117471;28;20015;-49
2022/03/20 01:14:51;;;;;;;;;;;;;;;;;;2118112;28;20018;-49
2022/03/20 01:15:52;;;;;;;;;;;;;;;;;;2117218;28;19935;-48
2022/03/20 01:16:54;;;;;;;;;;;;;;;;;;2118107;28;19932;-49
2022/03/20 01:17:56;;;;;;;;;;;;;;;;;;2117063;28;20068;-49
2022/03/20 01:18:57;;;;;;;;;;;;;;;;;;2118498;28;19977;-51
2022/03/20 01:19:58;;;;;;;;;;;;;;;;;;2118040;28;20405;-49
2022/03/20 01:20:59;;;;;;;;;;;;;;;;;;2117885;28;20400;-48
2022/03/20 01:22:00;;;;;;;;;;;;;;;;;;2118258;28;19927;-50
2022/03/20 01:23:02;;;;;;;;;;;;;;;;;;2117996;28;20022;-48
2022/03/20 01:24:03;;;;;;;;;;;;;;;;;;2116348;28;20427;-45
2022/03/20 01:25:04;;;;;;;;;;;;;;;;;;2114990;28;20375;-45
2022/03/20 01:26:06;;;;;;;;;;;;;;;;;;2116320;28;20010;-45
2022/03/20 01:27:07;;;;;;;;;;;;;;;;;;2117760;28;20006;-45
2022/03/20 01:28:08;;;;;;;;;;;;;;;;;;2115666;28;19924;-44
2022/03/20 01:29:10;;;;;;;;;;;;;;;;;;2117734;28;19924;-45
2022/03/20 01:30:11;;;;;;;;;;;;;;;;;;2118333;28;20408;-47
2022/03/20 01:31:12;;;;;;;;;;;;;;;;;;2118214;28;20027;-48
2022/03/20 01:32:14;;;;;;;;;;;;;;;;;;2117676;28;19967;-51
2022/03/20 01:33:15;;;;;;;;;;;;;;;;;;2118564;28;20361;-48
2022/03/20 01:34:19;;;;;;;;;;;;;;;;;;2116628;28;20328;-49
2022/03/20 01:35:21;;;;;;;;;;;;;;;;;;2116554;28;19970;-49
2022/03/20 01:36:22;;;;;;;;;;;;;;;;;;2115993;28;19931;-48
2022/03/20 01:37:24;;;;;;;;;;;;;;;;;;2117809;28;20010;-49
2022/03/20 01:38:25;;;;;;;;;;;;;;;;;;2118234;28;20022;-49
2022/03/20 01:39:26;;;;;;;;;;;;;;;;;;2117408;28;20045;-49
2022/03/20 01:40:27;;;;;;;;;;;;;;;;;;2115788;28;20010;-48
2022/03/20 01:41:28;;;;;;;;;;;;;;;;;;2112117;28;20064;-49
2022/03/20 01:42:29;;;;;;;;;;;;;;;;;;2118393;28;20282;-52
2022/03/20 01:43:31;;;;;;;;;;;;;;;;;;2117171;28;19938;-49
2022/03/20 01:44:32;;;;;;;;;;;;;;;;;;2117882;28;20376;-49
2022/03/20 01:45:33;;;;;;;;;;;;;;;;;;2116366;28;19980;-48
2022/03/20 01:46:34;;;;;;;;;;;;;;;;;;2115923;28;19930;-50
2022/03/20 01:47:35;;;;;;;;;;;;;;;;;;2115425;28;20350;-48
2022/03/20 01:48:37;;;;;;;;;;;;;;;;;;2117640;28;19927;-49
2022/03/20 01:49:38;;;;;;;;;;;;;;;;;;2116171;28;20006;-48
2022/03/20 01:50:39;;;;;;;;;;;;;;;;;;2117033;28;19931;-48
2022/03/20 01:53:01;;;;;;;;;;;;;;;;;;2117111;28;20341;-48
2022/03/20 01:54:02;;;;;;;;;;;;;;;;;;2117999;28;19959;-44
2022/03/20 01:55:03;;;;;;;;;;;;;;;;;;2118104;27;19992;-45
2022/03/20 01:56:04;;;;;;;;;;;;;;;;;;2117060;28;20018;-45
2022/03/20 01:57:07;;;;;;;;;;;;;;;;;;2119744;28;19923;-45
2022/03/20 01:58:08;;;;;;;;;;;;;;;;;;2114569;28;19959;-45
2022/03/20 01:59:09;;;;;;;;;;;;;;;;;;2117180;28;20324;-46
2022/03/20 02:00:10;;;;;;;;;;;;;;;;;;2117497;28;20344;-45
2022/03/20 02:01:12;;;;;;;;;;;;;;;;;;2119338;28;20028;-49
2022/03/20 02:02:13;;;;;;;;;;;;;;;;;;2118212;28;20441;-49
2022/03/20 02:03:14;;;;;;;;;;;;;;;;;;2118384;28;19924;-44
2022/03/20 02:04:16;;;;;;;;;;;;;;;;;;2117194;28;20361;-44
2022/03/20 02:05:17;;;;;;;;;;;;;;;;;;2117511;28;19930;-44
2022/03/20 02:06:18;;;;;;;;;;;;;;;;;;2118321;28;19928;-44
2022/03/20 02:07:20;;;;;;;;;;;;;;;;;;2117413;28;20021;-45
2022/03/20 02:08:25;;;;;;;;;;;;;;;;;;2117930;28;19989;-44
2022/03/20 02:09:27;;;;;;;;;;;;;;;;;;2117934;28;19932;-46
2022/03/20 02:10:35;;;;;;;;;;;;;;;;;;2117547;28;19924;-45
2022/03/20 02:11:36;;;;;;;;;;;;;;;;;;2117886;28;19927;-46
2022/03/20 02:12:37;;;;;;;;;;;;;;;;;;2119077;28;20006;-51
2022/03/20 02:13:38;;;;;;;;;;;;;;;;;;2117336;28;19974;-52
2022/03/20 02:14:39;;;;;;;;;;;;;;;;;;2118503;28;20066;-48
2022/03/20 02:15:41;;;;;;;;;;;;;;;;;;2118731;28;19981;-48
2022/03/20 02:16:42;;;;;;;;;;;;;;;;;;2117593;28;19975;-49
2022/03/20 02:17:43;;;;;;;;;;;;;;;;;;2118286;28;20009;-49
2022/03/20 02:18:44;;;;;;;;;;;;;;;;;;2116930;28;19963;-48
2022/03/20 02:19:46;;;;;;;;;;;;;;;;;;2118477;28;20368;-51
2022/03/20 02:20:47;;;;;;;;;;;;;;;;;;2117487;28;20361;-52
2022/03/20 02:21:48;;;;;;;;;;;;;;;;;;2117794;28;21339;-50
2022/03/20 02:22:49;;;;;;;;;;;;;;;;;;2118519;28;19995;-51
2022/03/20 02:23:50;;;;;;;;;;;;;;;;;;2122802;28;19923;-49
2022/03/20 02:24:52;;;;;;;;;;;;;;;;;;2118287;28;20023;-51
2022/03/20 02:25:53;;;;;;;;;;;;;;;;;;2118151;28;19953;-50
2022/03/20 02:26:56;;;;;;;;;;;;;;;;;;2117305;28;19972;-48
2022/03/20 02:27:57;;;;;;;;;;;;;;;;;;2118299;28;19935;-52
2022/03/20 02:28:58;;;;;;;;;;;;;;;;;;2117333;28;19931;-48
2022/03/20 02:29:59;;;;;;;;;;;;;;;;;;2117750;28;20068;-49
2022/03/20 02:31:00;;;;;;;;;;;;;;;;;;2118259;28;19945;-49
2022/03/20 02:32:02;;;;;;;;;;;;;;;;;;2117442;28;19923;-44
2022/03/20 02:33:03;;;;;;;;;;;;;;;;;;2116891;28;20065;-44
2022/03/20 02:34:04;;;;;;;;;;;;;;;;;;2117638;28;20509;-43
2022/03/20 02:35:05;;;;;;;;;;;;;;;;;;2118001;28;19928;-45
2022/03/20 02:36:06;;;;;;;;;;;;;;;;;;2117729;28;19931;-44
2022/03/20 02:37:08;;;;;;;;;;;;;;;;;;2117471;28;20014;-45
2022/03/20 02:38:10;;;;;;;;;;;;;;;;;;2116578;28;20029;-43
2022/03/20 02:39:11;;;;;;;;;;;;;;;;;;2117909;28;19959;-44
2022/03/20 02:40:12;;;;;;;;;;;;;;;;;;2117546;28;19967;-44
2022/03/20 02:41:14;;;;;;;;;;;;;;;;;;2116185;28;20010;-45
2022/03/20 02:42:15;;;;;;;;;;;;;;;;;;2118119;28;19967;-45
2022/03/20 02:43:17;;;;;;;;;;;;;;;;;;2117197;28;19923;-44
2022/03/20 02:44:18;;;;;;;;;;;;;;;;;;2115231;28;20019;-44
2022/03/20 02:45:21;;;;;;;;;;;;;;;;;;2117638;28;19930;-46
2022/03/20 02:46:22;;;;;;;;;;;;;;;;;;2117431;28;20011;-44
2022/03/20 02:47:23;;;;;;;;;;;;;;;;;;2117288;28;20424;-45
2022/03/20 02:48:25;;;;;;;;;;;;;;;;;;2118220;28;19963;-45
2022/03/20 02:49:26;;;;;;;;;;;;;;;;;;2116298;28;19983;-45
2022/03/20 02:50:27;;;;;;;;;;;;;;;;;;2117782;28;19992;-51
2022/03/20 02:51:28;;;;;;;;;;;;;;;;;;2116318;28;19923;-50
2022/03/20 02:52:30;;;;;;;;;;;;;;;;;;2116819;28;20317;-49
2022/03/20 02:53:34;;;;;;;;;;;;;;;;;;2118115;28;20011;-48
2022/03/20 02:54:36;;;;;;;;;;;;;;;;;;2116594;28;19923;-48
2022/03/20 02:55:37;;;;;;;;;;;;;;;;;;2116029;28;20444;-49
2022/03/20 02:56:38;;;;;;;;;;;;;;;;;;2118255;28;20014;-49
2022/03/20 02:57:40;;;;;;;;;;;;;;;;;;2118933;28;20018;-49
2022/03/20 02:58:41;;;;;;;;;;;;;;;;;;2119857;28;19970;-48
2022/03/20 02:59:42;;;;;;;;;;;;;;;;;;2114837;28;19931;-49
2022/03/20 03:00:43;;;;;;;;;;;;;;;;;;2117001;28;20031;-46
2022/03/20 03:01:45;;;;;;;;;;;;;;;;;;2117959;28;19930;-45
2022/03/20 03:02:47;;;;;;;;;;;;;;;;;;2118015;28;20013;-44
2022/03/20 03:03:48;;;;;;;;;;;;;;;;;;2117580;28;19924;-44
2022/03/20 03:04:50;;;;;;;;;;;;;;;;;;2117033;28;20245;-44
2022/03/20 03:05:55;;;;;;;;;;;;;;;;;;2116154;28;20017;-44
2022/03/20 03:06:56;;;;;;;;;;;;;;;;;;2116512;27;19923;-44
2022/03/20 03:11:58;;;;;;;;;;;;;;;;;;2116918;28;20379;-44
2022/03/20 03:12:58;;;;;;;;;;;;;;;;;;2119705;28;20019;-44
2022/03/20 03:15:18;;;;;;;;;;;;;;;;;;2118916;28;19924;-44
2022/03/20 03:15:21;;;;;;;;;;;;;;;;;;2118640;28;20018;-44
2022/03/20 03:16:23;;;;;;;;;;;;;;;;;;2118178;28;20017;-44
2022/03/20 03:17:27;;;;;;;;;;;;;;;;;;2118648;28;20393;-44
2022/03/20 03:18:28;;;;;;;;;;;;;;;;;;2118221;28;19951;-44
2022/03/20 03:19:29;;;;;;;;;;;;;;;;;;2119128;28;20079;-43
2022/03/20 03:20:31;;;;;;;;;;;;;;;;;;2119399;28;19928;-44
2022/03/20 03:21:32;;;;;;;;;;;;;;;;;;2119314;28;20014;-44
2022/03/20 03:22:33;;;;;;;;;;;;;;;;;;2118608;28;19928;-45
2022/03/20 03:23:36;;;;;;;;;;;;;;;;;;2119398;28;20024;-44
2022/03/20 03:24:37;;;;;;;;;;;;;;;;;;2118953;28;20420;-44
2022/03/20 03:25:39;;;;;;;;;;;;;;;;;;2118599;28;20037;-44
2022/03/20 03:26:40;;;;;;;;;;;;;;;;;;2119268;28;20026;-44
2022/03/20 03:27:41;;;;;;;;;;;;;;;;;;2119381;28;19959;-44
2022/03/20 03:28:42;;;;;;;;;;;;;;;;;;2118733;28;19962;-44
2022/03/20 03:29:44;;;;;;;;;;;;;;;;;;2120188;28;20371;-44
2022/03/20 03:30:45;;;;;;;;;;;;;;;;;;2119059;28;20002;-43
2022/03/20 03:31:46;;;;;;;;;;;;;;;;;;2118326;28;20010;-45
2022/03/20 03:32:47;;;;;;;;;;;;;;;;;;2119529;28;20045;-44
2022/03/20 03:36:25;;;;;;;;;;;;;;;;;;2117110;28;20388;-45
2022/03/20 03:37:26;;;;;;;;;;;;;;;;;;2120041;28;19971;-44
2022/03/20 03:38:30;;;;;;;;;;;;;;;;;;2117855;28;19924;-45
2022/03/20 03:39:31;;;;;;;;;;;;;;;;;;2124568;28;19963;-48
2022/03/20 03:40:32;;;;;;;;;;;;;;;;;;2117567;28;19924;-49
2022/03/20 03:41:33;;;;;;;;;;;;;;;;;;2115806;28;20288;-48
2022/03/20 03:42:35;;;;;;;;;;;;;;;;;;2115827;28;19930;-49
2022/03/20 03:43:37;;;;;;;;;;;;;;;;;;2115778;28;20065;-47
2022/03/20 03:44:39;;;;;;;;;;;;;;;;;;2115737;28;20393;-49
2022/03/20 03:45:40;;;;;;;;;;;;;;;;;;2115548;28;20450;-51
2022/03/20 03:46:41;;;;;;;;;;;;;;;;;;2115822;28;20015;-44
2022/03/20 03:47:43;;;;;;;;;;;;;;;;;;2115723;28;19978;-44
2022/03/20 03:48:44;;;;;;;;;;;;;;;;;;2118734;28;20006;-43
2022/03/20 03:49:46;;;;;;;;;;;;;;;;;;2118502;28;19998;-43
2022/03/20 03:50:47;;;;;;;;;;;;;;;;;;2119552;28;20053;-43
2022/03/20 03:51:48;;;;;;;;;;;;;;;;;;2117033;28;20075;-44
2022/03/20 03:52:49;;;;;;;;;;;;;;;;;;2118945;28;19980;-44
2022/03/20 03:53:51;;;;;;;;;;;;;;;;;;2118600;28;20068;-44
2022/03/20 03:54:52;;;;;;;;;;;;;;;;;;2118127;28;19994;-44
2022/03/20 03:55:54;;;;;;;;;;;;;;;;;;2118240;28;20024;-43
2022/03/20 03:56:55;;;;;;;;;;;;;;;;;;2115665;28;19954;-44
2022/03/20 03:57:57;;;;;;;;;;;;;;;;;;2115666;28;19931;-44
2022/03/20 03:58:59;;;;;;;;;;;;;;;;;;2115589;28;19931;-44
2022/03/20 04:00:01;;;;;;;;;;;;;;;;;;2115925;28;19923;-44
2022/03/20 04:01:03;;;;;;;;;;;;;;;;;;2115637;28;19947;-43
2022/03/20 04:02:05;;;;;;;;;;;;;;;;;;2120646;28;19923;-43
2022/03/20 04:03:07;;;;;;;;;;;;;;;;;;2115914;28;19923;-50
2022/03/20 04:04:10;;;;;;;;;;;;;;;;;;2115190;28;20396;-48
2022/03/20 04:05:14;;;;;;;;;;;;;;;;;;2115820;28;19989;-48
2022/03/20 04:06:15;;;;;;;;;;;;;;;;;;2115106;28;20273;-48
2022/03/20 04:07:17;;;;;;;;;;;;;;;;;;2116097;28;19931;-50
2022/03/20 04:08:18;;;;;;;;;;;;;;;;;;2115699;28;19939;-47
2022/03/20 04:09:20;;;;;;;;;;;;;;;;;;2115875;28;19923;-48
2022/03/20 04:10:22;;;;;;;;;;;;;;;;;;2115524;28;19924;-50
2022/03/20 04:11:23;;;;;;;;;;;;;;;;;;2115973;28;20352;-52
2022/03/20 04:12:24;;;;;;;;;;;;;;;;;;2115535;28;19955;-50
2022/03/20 04:13:26;;;;;;;;;;;;;;;;;;2115623;28;19924;-49
2022/03/20 04:14:28;;;;;;;;;;;;;;;;;;2115626;28;19966;-49
2022/03/20 04:15:31;;;;;;;;;;;;;;;;;;2115297;28;20293;-49
2022/03/20 04:16:33;;;;;;;;;;;;;;;;;;2115525;28;19924;-49
2022/03/20 04:17:34;;;;;;;;;;;;;;;;;;2115346;28;20396;-48
2022/03/20 04:18:40;;;;;;;;;;;;;;;;;;2115206;28;20315;-49
2022/03/20 04:19:41;;;;;;;;;;;;;;;;;;2115372;28;19939;-44
2022/03/20 04:20:43;;;;;;;;;;;;;;;;;;2115582;28;19924;-44
2022/03/20 04:21:44;;;;;;;;;;;;;;;;;;2115632;28;20014;-49
2022/03/20 04:24:01;;;;;;;;;;;;;;;;;;2115260;28;19947;-48
2022/03/20 04:25:02;;;;;;;;;;;;;;;;;;2107381;28;19930;-49
2022/03/20 04:26:04;;;;;;;;;;;;;;;;;;2112565;28;19996;-48
2022/03/20 04:27:05;;;;;;;;;;;;;;;;;;2115596;28;19970;-50
2022/03/20 04:28:06;;;;;;;;;;;;;;;;;;2115491;28;20445;-47
2022/03/20 04:29:07;;;;;;;;;;;;;;;;;;2115371;28;20029;-47
2022/03/20 04:30:08;;;;;;;;;;;;;;;;;;2115789;28;20010;-47
2022/03/20 04:31:09;;;;;;;;;;;;;;;;;;2115630;28;19923;-48
2022/03/20 04:32:11;;;;;;;;;;;;;;;;;;2115417;28;20292;-51
2022/03/20 04:33:12;;;;;;;;;;;;;;;;;;2115072;28;20494;-44
2022/03/20 04:34:14;;;;;;;;;;;;;;;;;;2115983;28;19980;-50
2022/03/20 04:35:14;;;;;;;;;;;;;;;;;;2115405;28;19931;-48
2022/03/20 04:36:16;;;;;;;;;;;;;;;;;;2115536;28;19923;-48
2022/03/20 04:37:18;;;;;;;;;;;;;;;;;;2115438;28;19946;-53
2022/03/20 04:38:21;;;;;;;;;;;;;;;;;;2115834;28;20089;-49
2022/03/20 04:39:22;;;;;;;;;;;;;;;;;;2115852;28;20467;-44
2022/03/20 04:40:23;;;;;;;;;;;;;;;;;;2115717;28;19969;-45
2022/03/20 04:41:25;;;;;;;;;;;;;;;;;;2115609;28;19931;-45
2022/03/20 04:42:27;;;;;;;;;;;;;;;;;;2115378;28;20296;-50
2022/03/20 04:43:28;;;;;;;;;;;;;;;;;;2115357;28;20025;-51
2022/03/20 04:44:29;;;;;;;;;;;;;;;;;;2115828;28;20032;-44
2022/03/20 04:45:30;;;;;;;;;;;;;;;;;;2115615;28;20002;-50
2022/03/20 04:46:32;;;;;;;;;;;;;;;;;;2115234;28;20007;-48
2022/03/20 04:59:26;;;;;;;;;;;;;;;;;;2109615;28;20358;-48
2022/03/20 05:00:32;;;;;;;;;;;;;;;;;;2115740;28;19968;-50
2022/03/20 05:01:33;;;;;;;;;;;;;;;;;;2115334;28;19927;-51
2022/03/20 05:02:35;;;;;;;;;;;;;;;;;;2115469;28;20057;-44
2022/03/20 05:03:36;;;;;;;;;;;;;;;;;;2115426;28;19924;-46
2022/03/20 05:04:38;;;;;;;;;;;;;;;;;;2114704;28;20484;-44
2022/03/20 05:05:39;;;;;;;;;;;;;;;;;;2115452;28;19977;-50
2022/03/20 05:06:40;;;;;;;;;;;;;;;;;;2115215;28;20411;-48
2022/03/20 05:07:41;;;;;;;;;;;;;;;;;;2115559;28;20017;-45
2022/03/20 05:08:42;;;;;;;;;;;;;;;;;;2114791;28;20048;-44
2022/03/20 05:13:43;;;;;;;;;;;;;;;;;;2115109;28;20089;-45
2022/03/20 05:14:44;;;;;;;;;;;;;;;;;;2115157;28;19972;-45
2022/03/20 05:15:46;;;;;;;;;;;;;;;;;;2115293;28;20324;-46
2022/03/20 05:16:50;;;;;;;;;;;;;;;;;;2114324;28;19927;-49
2022/03/20 05:17:52;;;;;;;;;;;;;;;;;;2115423;28;20092;-44
2022/03/20 05:18:54;;;;;;;;;;;;;;;;;;2115749;28;20069;-44
2022/03/20 05:19:55;;;;;;;;;;;;;;;;;;2115088;28;20022;-45
2022/03/20 05:20:56;;;;;;;;;;;;;;;;;;2114886;28;19924;-44
2022/03/20 05:21:57;;;;;;;;;;;;;;;;;;2115065;28;20006;-46
2022/03/20 05:22:58;;;;;;;;;;;;;;;;;;2114873;28;19939;-44
2022/03/20 05:23:59;;;;;;;;;;;;;;;;;;2115387;28;20011;-48
2022/03/20 05:25:01;;;;;;;;;;;;;;;;;;2115191;28;20006;-48
2022/03/20 05:26:02;;;;;;;;;;;;;;;;;;2115094;28;19996;-48
2022/03/20 05:27:03;;;;;;;;;;;;;;;;;;2115116;28;20094;-49
2022/03/20 05:28:04;;;;;;;;;;;;;;;;;;2115201;28;19927;-49
2022/03/20 05:29:06;;;;;;;;;;;;;;;;;;2115285;28;19952;-44
2022/03/20 05:30:07;;;;;;;;;;;;;;;;;;2115229;28;20018;-48
2022/03/20 05:31:09;;;;;;;;;;;;;;;;;;2114921;28;19930;-49
2022/03/20 05:32:10;;;;;;;;;;;;;;;;;;2114353;28;20048;-48
2022/03/20 05:33:12;;;;;;;;;;;;;;;;;;2112386;28;20422;-48
2022/03/20 05:34:13;;;;;;;;;;;;;;;;;;2115197;28;19924;-49
2022/03/20 05:35:15;;;;;;;;;;;;;;;;;;2115055;28;20018;-48
2022/03/20 05:36:17;;;;;;;;;;;;;;;;;;2115206;28;20265;-45
2022/03/20 05:37:18;;;;;;;;;;;;;;;;;;2115092;28;20052;-45
2022/03/20 05:38:19;;;;;;;;;;;;;;;;;;2114675;28;20019;-45
2022/03/20 05:39:20;;;;;;;;;;;;;;;;;;2115225;28;20010;-44
2022/03/20 05:40:21;;;;;;;;;;;;;;;;;;2114987;28;20346;-44
2022/03/20 05:42:54;;;;;;;;;;;;;;;;;;2089013;28;19928;-44
2022/03/20 05:43:55;;;;;;;;;;;;;;;;;;2088681;28;20404;-50
2022/03/20 05:44:56;;;;;;;;;;;;;;;;;;2089197;28;19932;-49
2022/03/20 05:45:58;;;;;;;;;;;;;;;;;;2114759;28;19930;-44
2022/03/20 05:46:59;;;;;;;;;;;;;;;;;;2114779;28;19993;-44
2022/03/20 05:48:00;;;;;;;;;;;;;;;;;;2114773;28;20011;-44
2022/03/20 05:49:01;;;;;;;;;;;;;;;;;;2115157;28;20002;-49
2022/03/20 05:50:02;;;;;;;;;;;;;;;;;;2114395;28;19930;-49
2022/03/20 05:51:03;;;;;;;;;;;;;;;;;;2115556;28;20025;-49
2022/03/20 05:52:05;;;;;;;;;;;;;;;;;;2114781;28;19935;-49
2022/03/20 05:53:06;;;;;;;;;;;;;;;;;;2114616;28;20015;-48
2022/03/20 05:54:07;;;;;;;;;;;;;;;;;;2114791;28;20022;-48
2022/03/20 05:55:08;;;;;;;;;;;;;;;;;;2108159;28;20047;-48
2022/03/20 05:58:49;;;;;;;;;;;;;;;;;;2113158;28;20002;-48
2022/03/20 05:59:53;;;;;;;;;;;;;;;;;;2113188;28;20006;-50
2022/03/20 06:00:55;;;;;;;;;;;;;;;;;;2114948;28;20392;-48
2022/03/20 06:01:57;;;;;;;;;;;;;;;;;;2117020;28;20196;-48
2022/03/20 06:02:58;;;;;;;;;;;;;;;;;;2118751;28;20035;-44
2022/03/20 06:04:00;;;;;;;;;;;;;;;;;;2116023;28;19924;-44
2022/03/20 06:05:01;;;;;;;;;;;;;;;;;;2123560;28;20364;-49
2022/03/20 06:06:02;;;;;;;;;;;;;;;;;;2115863;28;19923;-49
2022/03/20 06:07:04;;;;;;;;;;;;;;;;;;2115122;28;20010;-44
2022/03/20 06:08:05;;;;;;;;;;;;;;;;;;2114689;28;20012;-48
2022/03/20 06:09:06;;;;;;;;;;;;;;;;;;2114911;28;20002;-48
2022/03/20 06:10:08;;;;;;;;;;;;;;;;;;2107767;28;20065;-48
2022/03/20 06:11:09;;;;;;;;;;;;;;;;;;2106403;28;19925;-48
2022/03/20 06:12:10;;;;;;;;;;;;;;;;;;2106592;28;19971;-48
2022/03/20 06:13:11;;;;;;;;;;;;;;;;;;2106496;28;19924;-49
2022/03/20 06:14:12;;;;;;;;;;;;;;;;;;2115173;28;20035;-48
2022/03/20 06:15:14;;;;;;;;;;;;;;;;;;2117417;28;19932;-48
2022/03/20 06:16:15;;;;;;;;;;;;;;;;;;2117512;28;20003;-51
2022/03/20 06:17:17;;;;;;;;;;;;;;;;;;2117817;28;20360;-49
2022/03/20 06:18:18;;;;;;;;;;;;;;;;;;2118230;28;20039;-43
2022/03/20 06:19:20;;;;;;;;;;;;;;;;;;2117194;28;20019;-47
2022/03/20 06:20:21;;;;;;;;;;;;;;;;;;2117104;28;20006;-48
2022/03/20 06:21:22;;;;;;;;;;;;;;;;;;2118511;28;20005;-44
2022/03/20 06:22:23;;;;;;;;;;;;;;;;;;2116487;28;20365;-43
2022/03/20 06:23:27;;;;;;;;;;;;;;;;;;2118963;28;20014;-48
2022/03/20 06:24:28;;;;;;;;;;;;;;;;;;2116182;28;19930;-48
2022/03/20 06:25:29;;;;;;;;;;;;;;;;;;2114771;28;20061;-50
2022/03/20 06:26:30;;;;;;;;;;;;;;;;;;2114589;28;20006;-50
2022/03/20 06:27:32;;;;;;;;;;;;;;;;;;2114696;28;20018;-43
2022/03/20 06:28:33;;;;;;;;;;;;;;;;;;2114554;28;20502;-43
2022/03/20 06:29:34;;;;;;;;;;;;;;;;;;2114696;28;19928;-44
2022/03/20 06:30:35;;;;;;;;;;;;;;;;;;2114868;28;19975;-43
2022/03/20 06:31:36;;;;;;;;;;;;;;;;;;2114628;28;20007;-43
2022/03/20 06:32:38;;;;;;;;;;;;;;;;;;2114499;28;20010;-48
2022/03/20 06:33:39;;;;;;;;;;;;;;;;;;2114199;28;19923;-47
2022/03/20 06:34:42;;;;;;;;;;;;;;;;;;2114856;28;20057;-49
2022/03/20 06:35:44;;;;;;;;;;;;;;;;;;2114799;28;20010;-48
2022/03/20 06:36:48;;;;;;;;;;;;;;;;;;2114193;28;19924;-52
2022/03/20 06:37:50;;;;;;;;;;;;;;;;;;2114625;28;20022;-49
2022/03/20 06:38:51;;;;;;;;;;;;;;;;;;2114766;28;20085;-43
2022/03/20 06:39:52;;;;;;;;;;;;;;;;;;2110491;28;19932;-48
2022/03/20 06:40:53;;;;;;;;;;;;;;;;;;2112555;28;20026;-44
2022/03/20 06:41:56;;;;;;;;;;;;;;;;;;2112349;28;20385;-48
2022/03/20 06:42:57;;;;;;;;;;;;;;;;;;2114323;28;20436;-49
2022/03/20 06:43:58;;;;;;;;;;;;;;;;;;2114237;28;19924;-48
2022/03/20 06:44:59;;;;;;;;;;;;;;;;;;2114720;28;19924;-44
2022/03/20 06:46:01;;;;;;;;;;;;;;;;;;2114095;28;19927;-43
2022/03/20 06:47:23;;;;;;;;;;;;;;;;;;2114800;28;19930;-47
2022/03/20 06:48:25;;;;;;;;;;;;;;;;;;2114127;28;19923;-43
2022/03/20 06:49:26;;;;;;;;;;;;;;;;;;2114298;28;19924;-43
2022/03/20 06:50:27;;;;;;;;;;;;;;;;;;2114530;28;19923;-43
2022/03/20 06:51:29;;;;;;;;;;;;;;;;;;2114398;28;19998;-43
2022/03/20 06:52:30;;;;;;;;;;;;;;;;;;2114525;28;20010;-45
2022/03/20 06:53:32;;;;;;;;;;;;;;;;;;2114751;28;20452;-47
2022/03/20 06:54:34;;;;;;;;;;;;;;;;;;2113920;28;20394;-49
2022/03/20 06:55:35;;;;;;;;;;;;;;;;;;2114320;28;20035;-48
2022/03/20 06:56:36;;;;;;;;;;;;;;;;;;2113344;28;20006;-49
2022/03/20 06:57:38;;;;;;;;;;;;;;;;;;2114706;28;20030;-50
2022/03/20 06:58:39;;;;;;;;;;;;;;;;;;2114573;28;20010;-43
2022/03/20 06:59:40;;;;;;;;;;;;;;;;;;2114501;28;20026;-44
2022/03/20 07:00:41;;;;;;;;;;;;;;;;;;2114098;28;19924;-44
2022/03/20 07:01:43;;;;;;;;;;;;;;;;;;2114425;28;19924;-43
2022/03/20 07:02:44;;;;;;;;;;;;;;;;;;2114080;28;19928;-44
2022/03/20 07:03:45;;;;;;;;;;;;;;;;;;2110587;28;19954;-44
2022/03/20 07:04:47;;;;;;;;;;;;;;;;;;2114200;28;19931;-50
2022/03/20 07:05:48;;;;;;;;;;;;;;;;;;2114413;28;19928;-44
2022/03/20 07:06:50;;;;;;;;;;;;;;;;;;2114423;28;19972;-43
2022/03/20 07:07:51;;;;;;;;;;;;;;;;;;2114340;28;19971;-43
2022/03/20 07:08:55;;;;;;;;;;;;;;;;;;2114101;28;19978;-43
2022/03/20 07:09:56;;;;;;;;;;;;;;;;;;2114512;28;20450;-44
2022/03/20 07:10:57;;;;;;;;;;;;;;;;;;2114407;28;20416;-44
2022/03/20 07:11:58;;;;;;;;;;;;;;;;;;2114511;28;19924;-43
2022/03/20 07:14:16;;;;;;;;;;;;;;;;;;2113409;28;19924;-43
2022/03/20 07:15:18;;;;;;;;;;;;;;;;;;2111807;28;20440;-44
2022/03/20 07:16:20;;;;;;;;;;;;;;;;;;2111914;28;20015;-44
2022/03/20 07:17:22;;;;;;;;;;;;;;;;;;2112321;28;19931;-44
2022/03/20 07:18:24;;;;;;;;;;;;;;;;;;2114325;28;20188;-48
2022/03/20 07:19:26;;;;;;;;;;;;;;;;;;2112420;28;20018;-43
2022/03/20 07:20:27;;;;;;;;;;;;;;;;;;2109801;28;19967;-45
2022/03/20 07:21:32;;;;;;;;;;;;;;;;;;2112534;28;20401;-48
2022/03/20 07:22:33;;;;;;;;;;;;;;;;;;2113893;28;20030;-49
2022/03/20 07:23:34;;;;;;;;;;;;;;;;;;2114456;28;20058;-44
2022/03/20 07:24:35;;;;;;;;;;;;;;;;;;2114327;28;20018;-43
2022/03/20 07:29:35;;;;;;;;;;;;;;;;;;2107192;28;19932;-47
2022/03/20 07:30:37;;;;;;;;;;;;;;;;;;2114372;28;19957;-50
2022/03/20 07:31:38;;;;;;;;;;;;;;;;;;2115989;28;19923;-49
2022/03/20 07:32:41;;;;;;;;;;;;;;;;;;2118338;28;19953;-43
2022/03/20 07:33:44;;;;;;;;;;;;;;;;;;2114163;28;19924;-43
2022/03/20 07:34:45;;;;;;;;;;;;;;;;;;2114782;28;19999;-43
2022/03/20 07:35:46;;;;;;;;;;;;;;;;;;2116583;28;20341;-49